Observations for MANCHESTER INTL, United Kingdom (EGCC)

EGCC 221420Z AUTO 28009KT 9999 FEW034 12/04 Q1037 NOSIG 
EGCC 221350Z AUTO 28010KT 9999 FEW031 12/05 Q1038 NOSIG 
EGCC 221320Z AUTO 29010KT 9999 SCT032 12/05 Q1038 NOSIG 
EGCC 221250Z 34008KT 290V020 9999 FEW028 SCT032 11/06 Q1038 NOSIG   
EGCC 221220Z 30010KT 260V330 9999 FEW027 SCT033 12/06 Q1039 NOSIG   
EGCC 221150Z AUTO 30010KT 9999 SCT026 12/06 Q1039 NOSIG 
EGCC 221120Z 30008KT 280V340 9999 FEW025 11/06 Q1039 NOSIG  
EGCC 221050Z 31010KT 9999 SCT023 11/06 Q1039 NOSIG  
EGCC 221020Z AUTO 32009KT 280V350 9999 NCD 11/05 Q1039 NOSIG
EGCC 220950Z AUTO 33007KT 9999 NCD 11/04 Q1039 NOSIG
EGCC 220920Z AUTO 33006KT 270V360 9999 NCD 10/05 Q1038 NOSIG
EGCC 220850Z AUTO 33006KT 9999 NCD 08/04 Q1038 NOSIG
EGCC 220820Z AUTO 29005KT 260V330 9999 NCD 08/04 Q1038 NOSIG
EGCC 220750Z AUTO 33004KT 290V360 9999 NCD 07/04 Q1038 NOSIG
EGCC 220720Z AUTO VRB03KT 9999 NCD 07/04 Q1037 NOSIG
EGCC 220650Z AUTO 31006KT 9999 NCD 08/05 Q1037 NOSIG
EGCC 220620Z AUTO VRB03KT 9999 NCD 08/06 Q1037 NOSIG
EGCC 220550Z AUTO VRB02KT 9999 BKN041 08/06 Q1037 NOSIG 
EGCC 220520Z AUTO 33004KT 290V350 9999 FEW016 SCT023 BKN029 08/06 Q1036 RERA NOSIG  
EGCC 220450Z AUTO 05002KT 9999 BKN019 OVC034 07/06 Q1036 NOSIG  
EGCC 220420Z AUTO VRB02KT 9999 BKN023 OVC031 07/05 Q1036 NOSIG  
EGCC 220350Z AUTO 00000KT 9999 SCT023 BKN030 OVC037 06/05 Q1035 NOSIG   
EGCC 220320Z AUTO VRB02KT 9999 BKN027 OVC032 06/05 Q1035 NOSIG  
EGCC 220250Z AUTO VRB01KT 9999 FEW027 BKN038 06/04 Q1035 NOSIG  
EGCC 220220Z AUTO 08002KT 9999 SCT027 OVC032 07/05 Q1035 NOSIG  
EGCC 220150Z AUTO VRB01KT 9999 OVC035 07/04 Q1035 NOSIG 
EGCC 220120Z AUTO VRB01KT 9999 OVC036 05/04 Q1034 NOSIG 
EGCC 220050Z AUTO 10002KT 9999 BKN038 04/03 Q1034 NOSIG 
EGCC 220020Z AUTO VRB01KT 9999 NCD 04/02 Q1034 NOSIG
EGCC 212350Z AUTO VRB01KT 9999 NCD 08/03 Q1034 NOSIG
EGCC 212320Z AUTO 36002KT 9999 NCD 09/03 Q1034 NOSIG
EGCC 212250Z AUTO 31004KT 9999 FEW035 09/04 Q1033 NOSIG 
EGCC 212220Z AUTO 33004KT 9999 NCD 09/04 Q1033 NOSIG
EGCC 212150Z AUTO 32009KT 9999 NCD 09/05 Q1033 NOSIG
EGCC 212120Z AUTO 32007KT 9999 SCT032 10/05 Q1032 NOSIG 
EGCC 212050Z AUTO VRB03KT 9999 BKN034 10/05 Q1032 NOSIG 
EGCC 212020Z AUTO 35009KT 9999 NCD 10/05 Q1032 NOSIG
EGCC 211950Z AUTO 34009KT 9999 NCD 10/07 Q1031 NOSIG
EGCC 211920Z AUTO 33006KT 9999 NCD 10/07 Q1031 NOSIG
EGCC 211850Z AUTO 30006KT 9999 FEW024 SCT029 11/08 Q1030 NOSIG  
EGCC 211820Z AUTO 31008KT 9999 NCD 11/08 Q1030  
EGCC 211750Z AUTO 31007KT 9999 SCT031 11/09 Q1029 NOSIG 
EGCC 211720Z AUTO 31009KT 9999 FEW021 12/09 Q1029 NOSIG 
EGCC 211650Z AUTO 30008KT 9999 SCT018 12/09 Q1028 NOSIG 
EGCC 211620Z AUTO 31008KT 9999 SCT016 BKN039 12/09 Q1028 NOSIG  
EGCC 211550Z AUTO 30009KT 260V330 9999 BKN014 BKN019 OVC032 12/10 Q1028 BECMG SCT025
EGCC 211520Z AUTO 30007KT 260V320 9999 FEW015 BKN024 OVC031 12/10 Q1027 NOSIG   
EGCC 211450Z 32010KT 9999 VCSH FEW008 BKN025 12/11 Q1027 TEMPO BKN008   
EGCC 211420Z 32010KT 9999 -RA FEW004 SCT008 BKN018 13/12 Q1027 RERA REDZ TEMPO 4000 RADZ BKN008 
EGCC 211350Z 23007KT 3500 DZRA SCT004 BKN010 14/13 Q1026 RERA BECMG 9999 NSW SCT025